This is the latest recevied weather packets stored in our database for station/object YD2UMH-10. If no packets are shown the sender has not sent any weather packets the latest 1 day(s).
| Time | Temp. | Humidity | Pressure | Rain* | Wind** | Luminosity | Snow |
|---|---|---|---|---|---|---|---|
| 1778044938 | 39.44° C | 84% | 989 hPa | - | 0 m/s | 0 W/m² | - |
| 1778044616 | 37.22° C | 94% | 989 hPa | - | 0 m/s | 0 W/m² | - |
| 1778044294 | 35.56° C | 99% | 989 hPa | - | 0 m/s | 0 W/m² | - |
| 1778043972 | 39.44° C | 82% | 989 hPa | - | 0 m/s | 0 W/m² | - |
| 1778043650 | 38.89° C | 91% | 989 hPa | - | 0 m/s | 0 W/m² | - |
| 1778043328 | 38.33° C | 92% | 989 hPa | - | 0 m/s | 0 W/m² | - |
| 1778043006 | 37.78° C | 90% | 989 hPa | - | 0 m/s | 0 W/m² | - |
| 1778042684 | 38.33° C | 93% | 989 hPa | - | 0 m/s | 0 W/m² | - |
| 1778042362 | 36.67° C | 99% | 989 hPa | - | 0 m/s | 0 W/m² | - |
| 1778042040 | 36.11° C | 99% | 989 hPa | - | 0 m/s | 0 W/m² | - |
| 1778041718 | 39.44° C | 90% | 990 hPa | - | 0 m/s | 0 W/m² | - |
| 1778041396 | 37.22° C | 99% | 990 hPa | - | 0 m/s | 0 W/m² | - |
| 1778041074 | 37.78° C | 92% | 990 hPa | - | 0 m/s | 0 W/m² | - |
| 1778040752 | 35° C | 99% | 990 hPa | - | 0 m/s | 0 W/m² | - |
| 1778040430 | 36.67° C | 99% | 990 hPa | - | 0 m/s | 0 W/m² | - |
| 1778040108 | 36.11° C | 99% | 990 hPa | - | 0 m/s | 0 W/m² | - |
| 1778039786 | 35.56° C | 99% | 990 hPa | - | 0 m/s | 0 W/m² | - |
| 1778039464 | 35° C | 99% | 990 hPa | - | 0 m/s | 0 W/m² | - |
| 1778039146 | 35° C | 99% | 990 hPa | - | 0 m/s | 0 W/m² | - |
| 1778038820 | 35.56° C | 99% | 990 hPa | - | 0 m/s | 0 W/m² | - |
| 1778038498 | 38.33° C | 99% | 991 hPa | - | 0 m/s | 0 W/m² | - |
| 1778038176 | 36.67° C | 99% | 991 hPa | - | 0 m/s | 0 W/m² | - |
| 1778037854 | 39.44° C | 97% | 991 hPa | - | 0 m/s | 0 W/m² | - |
| 1778037532 | 38.89° C | 99% | 991 hPa | - | 0 m/s | 0 W/m² | - |
| 1778037210 | 37.22° C | 99% | 991 hPa | - | 0 m/s | 0 W/m² | - |
* Rain since midnight (hover to see other rain measurements)
** Current wind speed in m/s (hover to see current wind gust speed)